createdAt,value
2023-03-06T00:01:11.581Z,0
2023-03-06T00:06:11.680Z,0
2023-03-06T00:11:11.587Z,0
2023-03-06T00:16:11.652Z,0
2023-03-06T00:21:11.493Z,0
2023-03-06T00:26:11.584Z,0
2023-03-06T00:31:11.592Z,0
2023-03-06T00:36:11.568Z,0
2023-03-06T00:41:11.571Z,0
2023-03-06T00:46:11.522Z,0
2023-03-06T00:51:13.837Z,0
2023-03-06T00:56:11.512Z,0
2023-03-06T01:01:11.536Z,0
2023-03-06T01:06:11.566Z,0
2023-03-06T01:11:11.624Z,0
2023-03-06T01:21:24.450Z,0
2023-03-06T01:26:11.832Z,0
2023-03-06T01:31:11.884Z,0
2023-03-06T01:36:11.706Z,0
2023-03-06T01:41:14.640Z,0
2023-03-06T01:46:11.741Z,0
2023-03-06T01:51:11.709Z,0
2023-03-06T01:56:11.547Z,0
2023-03-06T02:01:11.543Z,0
2023-03-06T02:06:11.499Z,0
2023-03-06T02:11:11.526Z,0
2023-03-06T02:16:11.549Z,0
2023-03-06T02:21:11.508Z,0
2023-03-06T02:26:11.748Z,0
2023-03-06T02:31:11.549Z,0
2023-03-06T02:36:11.513Z,0
2023-03-06T02:41:11.673Z,0
2023-03-06T02:46:11.623Z,0
2023-03-06T02:51:11.633Z,0
2023-03-06T02:56:11.628Z,0
2023-03-06T03:01:11.614Z,0
2023-03-06T03:06:11.558Z,0
2023-03-06T03:11:11.540Z,0
2023-03-06T03:16:11.517Z,0
2023-03-06T03:21:11.566Z,0
2023-03-06T03:26:11.667Z,0
2023-03-06T03:31:11.619Z,0
2023-03-06T03:36:11.623Z,0
2023-03-06T03:41:11.552Z,0
2023-03-06T03:46:11.561Z,0
2023-03-06T03:51:11.558Z,0
2023-03-06T03:56:11.610Z,0
2023-03-06T04:01:11.641Z,0
2023-03-06T04:06:11.551Z,0
2023-03-06T04:11:12.710Z,0
2023-03-06T04:16:11.547Z,0
2023-03-06T04:21:12.118Z,0
2023-03-06T04:26:11.619Z,0
2023-03-06T04:31:11.725Z,0
2023-03-06T04:36:11.536Z,0
2023-03-06T04:41:11.828Z,0
2023-03-06T04:46:11.519Z,0
2023-03-06T04:51:11.714Z,0
2023-03-06T04:56:11.607Z,0
2023-03-06T05:01:11.669Z,0
2023-03-06T05:06:11.656Z,0
2023-03-06T05:11:11.649Z,0
2023-03-06T05:16:11.603Z,0
2023-03-06T05:21:11.620Z,0
2023-03-06T05:26:11.717Z,0
2023-03-06T05:31:11.566Z,0
2023-03-06T05:36:11.595Z,0
2023-03-06T05:41:11.675Z,0
2023-03-06T05:46:11.605Z,256
2023-03-06T05:51:11.649Z,257
2023-03-06T05:56:11.620Z,260
2023-03-06T06:01:11.693Z,266
2023-03-06T06:06:11.617Z,274
2023-03-06T06:11:11.623Z,279
2023-03-06T06:16:11.720Z,287
2023-03-06T06:21:11.827Z,299
2023-03-06T06:26:11.649Z,317
2023-03-06T06:31:11.726Z,332
2023-03-06T06:36:11.615Z,339
2023-03-06T06:41:35.883Z,340
2023-03-06T06:46:39.865Z,346
2023-03-06T06:51:11.793Z,383
2023-03-06T06:56:11.744Z,431
2023-03-06T07:01:13.524Z,454
2023-03-06T07:06:12.522Z,500
2023-03-06T07:11:11.845Z,599
2023-03-06T07:16:11.705Z,599
2023-03-06T07:21:11.607Z,605
2023-03-06T07:26:11.997Z,470
2023-03-06T07:31:11.678Z,483
2023-03-06T07:36:12.884Z,578
2023-03-06T07:41:11.679Z,604
2023-03-06T07:46:11.660Z,608
2023-03-06T07:51:11.630Z,563
2023-03-06T07:56:11.706Z,594
2023-03-06T08:01:11.900Z,581
2023-03-06T08:06:11.658Z,508
2023-03-06T08:11:11.844Z,539
2023-03-06T08:16:11.662Z,587
2023-03-06T08:21:11.614Z,545
2023-03-06T08:26:11.693Z,609
2023-03-06T08:31:11.692Z,581
2023-03-06T08:36:11.572Z,639
2023-03-06T08:41:11.713Z,640
2023-03-06T08:46:11.662Z,782
2023-03-06T08:51:11.597Z,638
2023-03-06T09:06:11.714Z,705
2023-03-06T09:11:11.768Z,723
2023-03-06T09:16:11.704Z,682
2023-03-06T09:21:11.744Z,690
2023-03-06T09:26:11.673Z,873
2023-03-06T09:31:11.705Z,900
2023-03-06T09:36:11.720Z,877
2023-03-06T09:41:11.662Z,869
2023-03-06T09:46:11.675Z,952
2023-03-06T09:51:11.718Z,827
2023-03-06T09:56:11.747Z,760
2023-03-06T10:01:11.583Z,922
2023-03-06T10:06:11.705Z,889
2023-03-06T10:11:11.665Z,805
2023-03-06T10:16:11.667Z,774
2023-03-06T10:21:18.941Z,718
2023-03-06T10:26:11.685Z,738
2023-03-06T10:31:11.690Z,831
2023-03-06T10:36:11.722Z,786
2023-03-06T10:41:11.703Z,997
2023-03-06T10:46:11.654Z,1049
2023-03-06T10:51:18.421Z,1303
2023-03-06T10:56:11.663Z,1013
2023-03-06T11:01:11.675Z,1148
2023-03-06T11:06:12.981Z,1134
2023-03-06T11:11:11.659Z,674
2023-03-06T11:16:11.692Z,792
2023-03-06T11:21:11.852Z,931
2023-03-06T11:26:11.582Z,517
2023-03-06T11:31:11.592Z,654
2023-03-06T11:36:11.624Z,717
2023-03-06T11:41:11.657Z,1051
2023-03-06T11:46:11.708Z,1062
2023-03-06T11:51:11.748Z,581
2023-03-06T11:56:11.659Z,682
2023-03-06T12:01:11.613Z,1042
2023-03-06T12:06:11.828Z,888
2023-03-06T12:11:11.693Z,673
2023-03-06T12:16:12.024Z,957
2023-03-06T12:21:12.153Z,879
2023-03-06T12:26:11.803Z,882
2023-03-06T12:31:11.692Z,785
2023-03-06T12:36:11.869Z,971
2023-03-06T12:41:11.704Z,813
2023-03-06T12:46:12.700Z,820
2023-03-06T12:51:11.770Z,992
2023-03-06T12:56:11.787Z,1056
2023-03-06T13:06:12.122Z,894
2023-03-06T13:11:12.042Z,927
2023-03-06T13:16:11.712Z,963
2023-03-06T13:21:11.721Z,902
2023-03-06T13:26:11.802Z,908
2023-03-06T13:31:21.443Z,736
2023-03-06T13:36:11.715Z,886
2023-03-06T13:41:12.143Z,946
2023-03-06T13:46:11.814Z,788
2023-03-06T13:51:11.718Z,699
2023-03-06T13:56:11.744Z,757
2023-03-06T14:01:11.784Z,885
2023-03-06T14:06:11.804Z,849
2023-03-06T14:11:11.650Z,650
2023-03-06T14:16:12.518Z,671
2023-03-06T14:21:11.849Z,675
2023-03-06T14:26:14.345Z,620
2023-03-06T14:31:11.847Z,538
2023-03-06T14:36:11.769Z,481
2023-03-06T14:41:15.144Z,449
2023-03-06T14:46:11.655Z,522
2023-03-06T14:51:11.774Z,625
2023-03-06T14:56:11.697Z,605
2023-03-06T15:01:11.690Z,657
2023-03-06T15:06:11.806Z,634
2023-03-06T15:11:11.841Z,605
2023-03-06T15:16:11.757Z,440
2023-03-06T15:21:11.917Z,405
2023-03-06T15:26:11.700Z,400
2023-03-06T15:31:11.844Z,376
2023-03-06T15:36:11.779Z,381
2023-03-06T15:41:11.736Z,404
2023-03-06T15:46:11.743Z,366
2023-03-06T15:51:12.042Z,323
2023-03-06T15:56:11.743Z,335
2023-03-06T16:01:11.928Z,329
2023-03-06T16:06:11.824Z,320
2023-03-06T16:11:11.783Z,323
2023-03-06T16:16:11.802Z,330
2023-03-06T16:21:14.009Z,315
2023-03-06T16:26:12.893Z,283
2023-03-06T16:31:11.823Z,283
2023-03-06T16:36:11.956Z,289
2023-03-06T16:41:11.808Z,289
2023-03-06T16:46:12.894Z,285
2023-03-06T16:51:11.948Z,273
2023-03-06T16:56:11.844Z,269
2023-03-06T17:01:11.944Z,263
2023-03-06T17:06:11.770Z,258
2023-03-06T17:11:14.039Z,257
2023-03-06T17:16:11.811Z,256
2023-03-06T17:21:12.346Z,0
2023-03-06T17:26:12.027Z,0
2023-03-06T17:32:58.338Z,0
2023-03-06T17:36:13.180Z,0
2023-03-06T17:41:12.120Z,0
2023-03-06T17:46:11.770Z,0
2023-03-06T17:51:11.807Z,0
2023-03-06T17:56:11.792Z,0
2023-03-06T18:01:11.766Z,0
2023-03-06T18:06:11.786Z,0
2023-03-06T18:11:11.780Z,0
2023-03-06T18:16:11.795Z,0
2023-03-06T18:21:11.786Z,0
2023-03-06T18:26:11.847Z,0
2023-03-06T18:31:11.891Z,0
2023-03-06T18:36:11.863Z,0
2023-03-06T18:41:11.847Z,0
2023-03-06T18:46:11.959Z,0
2023-03-06T18:51:13.305Z,0
2023-03-06T18:56:11.838Z,0
2023-03-06T19:01:11.960Z,0
2023-03-06T19:06:11.846Z,0
2023-03-06T19:11:11.728Z,0
2023-03-06T19:16:11.812Z,0
2023-03-06T19:21:11.914Z,0
2023-03-06T19:26:11.840Z,0
2023-03-06T19:31:11.819Z,0
2023-03-06T19:36:11.800Z,0
2023-03-06T19:41:11.860Z,0
2023-03-06T19:46:11.879Z,0
2023-03-06T19:51:13.991Z,0
2023-03-06T19:56:11.775Z,0
2023-03-06T20:01:11.816Z,0
2023-03-06T20:06:11.815Z,0
2023-03-06T20:11:11.806Z,0
2023-03-06T20:16:11.703Z,0
2023-03-06T20:21:11.970Z,0
2023-03-06T20:26:12.342Z,0
2023-03-06T20:31:11.777Z,0
2023-03-06T20:36:11.763Z,0
2023-03-06T20:41:12.443Z,0
2023-03-06T20:46:11.841Z,0
2023-03-06T20:51:13.835Z,0
2023-03-06T20:56:12.097Z,0
2023-03-06T21:01:11.830Z,0
2023-03-06T21:06:11.931Z,0
2023-03-06T21:11:11.873Z,0
2023-03-06T21:16:11.798Z,0
2023-03-06T21:21:11.768Z,0
2023-03-06T21:26:12.122Z,0
2023-03-06T21:31:14.053Z,0
2023-03-06T21:36:11.966Z,0
2023-03-06T21:41:12.274Z,0
2023-03-06T21:46:11.943Z,0
2023-03-06T21:51:11.962Z,0
2023-03-06T21:56:12.184Z,0
2023-03-06T22:01:11.818Z,0
2023-03-06T22:06:12.035Z,0
2023-03-06T22:11:11.901Z,0
2023-03-06T22:16:11.914Z,0
2023-03-06T22:21:12.076Z,0
2023-03-06T22:26:11.878Z,0
2023-03-06T22:31:11.915Z,0
2023-03-06T22:36:12.025Z,0
2023-03-06T22:41:11.986Z,0
2023-03-06T22:46:11.872Z,0
2023-03-06T22:51:12.109Z,0
2023-03-06T22:56:11.831Z,0
2023-03-06T23:01:11.969Z,0
2023-03-06T23:06:11.954Z,0
2023-03-06T23:11:15.548Z,0
2023-03-06T23:16:11.855Z,0
2023-03-06T23:21:12.097Z,0
2023-03-06T23:26:12.065Z,0
2023-03-06T23:31:11.893Z,0
2023-03-06T23:36:11.913Z,0
2023-03-06T23:41:12.458Z,0
2023-03-06T23:46:11.808Z,0
2023-03-06T23:51:11.928Z,0
2023-03-06T23:56:11.884Z,0
